Map

Track Data

SID SEASON NUMBER BASIN SUBBASIN NAME ISO_TIME NATURE LAT LON WMO_WIND WMO_PRES WMO_AGENCY TRACK_TYPE DIST2LAND LANDFALL IFLAG USA_AGENCY USA_ATCF_ID USA_LAT USA_LON USA_RECORD USA_STATUS USA_WIND USA_PRES USA_SSHS USA_R34_NE USA_R34_SE USA_R34_SW USA_R34_NW USA_R50_NE USA_R50_SE USA_R50_SW USA_R50_NW USA_R64_NE USA_R64_SE USA_R64_SW USA_R64_NW USA_POCI USA_ROCI USA_RMW USA_EYE TOKYO_LAT TOKYO_LON TOKYO_GRADE TOKYO_WIND TOKYO_PRES TOKYO_R50_DIR TOKYO_R50_LONG TOKYO_R50_SHORT TOKYO_R30_DIR TOKYO_R30_LONG TOKYO_R30_SHORT TOKYO_LAND CMA_LAT CMA_LON CMA_CAT CMA_WIND CMA_PRES HKO_LAT HKO_LON HKO_CAT HKO_WIND HKO_PRES NEWDELHI_LAT NEWDELHI_LON NEWDELHI_GRADE NEWDELHI_WIND NEWDELHI_PRES NEWDELHI_CI NEWDELHI_DP NEWDELHI_POCI REUNION_LAT REUNION_LON REUNION_TYPE REUNION_WIND REUNION_PRES REUNION_TNUM REUNION_CI REUNION_RMW REUNION_R34_NE REUNION_R34_SE REUNION_R34_SW REUNION_R34_NW REUNION_R50_NE REUNION_R50_SE REUNION_R50_SW REUNION_R50_NW REUNION_R64_NE REUNION_R64_SE REUNION_R64_SW REUNION_R64_NW BOM_LAT BOM_LON BOM_TYPE BOM_WIND BOM_PRES BOM_TNUM BOM_CI BOM_RMW BOM_R34_NE BOM_R34_SE BOM_R34_SW BOM_R34_NW BOM_R50_NE BOM_R50_SE BOM_R50_SW BOM_R50_NW BOM_R64_NE BOM_R64_SE BOM_R64_SW BOM_R64_NW BOM_ROCI BOM_POCI BOM_EYE BOM_POS_METHOD BOM_PRES_METHOD NADI_LAT NADI_LON NADI_CAT NADI_WIND NADI_PRES WELLINGTON_LAT WELLINGTON_LON WELLINGTON_WIND WELLINGTON_PRES DS824_LAT DS824_LON DS824_STAGE DS824_WIND DS824_PRES TD9636_LAT TD9636_LON TD9636_STAGE TD9636_WIND TD9636_PRES TD9635_LAT TD9635_LON TD9635_WIND TD9635_PRES TD9635_ROCI NEUMANN_LAT NEUMANN_LON NEUMANN_CLASS NEUMANN_WIND NEUMANN_PRES MLC_LAT MLC_LON MLC_CLASS MLC_WIND MLC_PRES USA_GUST BOM_GUST BOM_GUST_PER REUNION_GUST REUNION_GUST_PER USA_SEAHGT USA_SEARAD_NE USA_SEARAD_SE USA_SEARAD_SW USA_SEARAD_NW STORM_SPEED STORM_DIR
2002242N14257 2002 58 EP MM HERNAN 2002-08-30 06:00:00 TS 13.5000 -103.100 30 1006 hurdat_epa main 476 461 O_____________ hurdat_epa EP102002 13.5000 -103.100 TD 30 1006 -1 1011 150 60 5 330
2002242N14257 2002 58 EP MM HERNAN 2002-08-30 09:00:00 TS 13.7150 -103.225 main 461 447 P_____________ EP102002 13.7150 -103.225 TD 35 1004 0 30 30 30 1009 150 55 5 324
2002242N14257 2002 58 EP MM HERNAN 2002-08-30 12:00:00 TS 13.9000 -103.400 40 1002 hurdat_epa main 453 450 O_____________ hurdat_epa EP102002 13.9000 -103.400 TS 40 1002 0 60 60 60 1008 150 50 5 308
2002242N14257 2002 58 EP MM HERNAN 2002-08-30 15:00:00 TS 14.0425 -103.663 main 461 447 P_____________ EP102002 14.0425 -103.663 TS 42 1001 0 90 90 75 1008 150 47 7 297
2002242N14257 2002 58 EP MM HERNAN 2002-08-30 18:00:00 TS 14.2000 -104.000 45 1000 hurdat_epa main 450 436 O_____________ hurdat_epa EP102002 14.2000 -104.000 TS 45 1000 0 120 120 90 60 1008 150 45 8 300
2002242N14257 2002 58 EP MM HERNAN 2002-08-30 21:00:00 TS 14.4424 -104.370 main 443 422 P_____________ EP102002 14.4424 -104.370 TS 50 995 0 120 120 90 75 1008 165 37 9 303
2002242N14257 2002 58 EP MM HERNAN 2002-08-31 00:00:00 TS 14.7000 -104.800 55 991 hurdat_epa main 426 416 O_____________ hurdat_epa EP102002 14.7000 -104.800 TS 55 991 0 120 120 90 90 1009 180 30 10 299
2002242N14257 2002 58 EP MM HERNAN 2002-08-31 03:00:00 TS 14.9224 -105.278 main 426 421 P_____________ EP102002 14.9224 -105.278 TS 60 989 0 127 127 90 75 1009 180 30 10 292
2002242N14257 2002 58 EP MM HERNAN 2002-08-31 06:00:00 TS 15.1000 -105.800 65 987 hurdat_epa main 433 433 O_____________ hurdat_epa EP102002 15.1000 -105.800 HU 65 987 1 135 135 90 60 1009 180 30 11 285
2002242N14257 2002 58 EP MM HERNAN 2002-08-31 09:00:00 TS 15.2000 -106.358 main 464 464 P_____________ EP102002 15.2000 -106.358 HU 75 978 1 135 135 90 60 1009 180 30 11 281
2002242N14257 2002 58 EP MM HERNAN 2002-08-31 12:00:00 TS 15.3000 -106.900 85 970 hurdat_epa main 490 490 O_____________ hurdat_epa EP102002 15.3000 -106.900 HU 85 970 2 135 135 90 60 1009 180 30 10 285
2002242N14257 2002 58 EP MM HERNAN 2002-08-31 15:00:00 TS 15.4548 -107.358 main 497 497 P_____________ EP102002 15.4548 -107.358 HU 92 966 2 137 137 115 100 1009 180 30 10 295
2002242N14257 2002 58 EP MM HERNAN 2002-08-31 18:00:00 TS 15.7000 -107.800 100 962 hurdat_epa main 504 500 O_____________ hurdat_epa EP102002 15.7000 -107.800 HU 100 962 3 140 140 140 140 1009 180 30 11 307
2002242N14257 2002 58 EP MM HERNAN 2002-08-31 21:00:00 TS 16.1148 -108.270 main 507 499 P_____________ EP102002 16.1148 -108.270 HU 107 955 3 150 150 140 140 1009 180 30 13 310
2002242N14257 2002 58 EP MM HERNAN 2002-09-01 00:00:00 TS 16.5000 -108.800 115 948 hurdat_epa main 514 514 O_____________ hurdat_epa EP102002 16.5000 -108.800 HU 115 948 4 160 160 140 140 1009 180 30 12 294
2002242N14257 2002 58 EP MM HERNAN 2002-09-01 03:00:00 TS 16.6227 -109.451 main 563 563 P_____________ EP102002 16.6227 -109.451 HU 122 939 4 160 160 140 140 1009 180 30 13 279
2002242N14257 2002 58 EP MM HERNAN 2002-09-01 06:00:00 TS 16.7000 -110.100 130 931 hurdat_epa main 608 608 O_____________ hurdat_epa EP102002 16.7000 -110.100 HU 130 931 4 160 160 140 140 1009 180 30 12 285
2002242N14257 2002 58 EP MM HERNAN 2002-09-01 09:00:00 TS 16.9271 -110.615 main 640 640 P_____________ EP102002 16.9271 -110.615 HU 135 926 4 160 160 150 150 1009 180 30 11 298
2002242N14257 2002 58 EP MM HERNAN 2002-09-01 12:00:00 TS 17.2000 -111.100 140 921 hurdat_epa main 647 626 O_____________ hurdat_epa EP102002 17.2000 -111.100 HU 140 921 5 160 160 160 160 1009 180 30 11 299
2002242N14257 2002 58 EP MM HERNAN 2002-09-01 15:00:00 TS 17.4724 -111.642 main 626 621 P_____________ EP102002 17.4724 -111.642 HU 140 921 5 170 170 170 170 1009 180 30 12 295
2002242N14257 2002 58 EP MM HERNAN 2002-09-01 18:00:00 TS 17.7000 -112.200 140 921 hurdat_epa main 625 622 O_____________ hurdat_epa EP102002 17.7000 -112.200 HU 140 921 5 180 180 180 180 1009 180 30 11 288
2002242N14257 2002 58 EP MM HERNAN 2002-09-01 21:00:00 TS 17.8149 -112.758 main 640 640 P_____________ EP102002 17.8149 -112.758 HU 137 924 5 180 180 180 180 1009 210 30 11 281
2002242N14257 2002 58 EP MM HERNAN 2002-09-02 00:00:00 TS 17.9000 -113.300 135 927 hurdat_epa main 656 656 O_____________ hurdat_epa EP102002 17.9000 -113.300 HU 135 927 4 180 180 180 180 1009 240 30 10 283
2002242N14257 2002 58 EP MM HERNAN 2002-09-02 03:00:00 TS 18.0498 -113.800 main 675 666 P_____________ EP102002 18.0498 -113.800 HU 125 937 4 180 180 180 180 1009 240 30 10 288
2002242N14257 2002 58 EP MM HERNAN 2002-09-02 06:00:00 TS 18.2000 -114.300 115 948 hurdat_epa main 690 690 O_____________ hurdat_epa EP102002 18.2000 -114.300 HU 115 948 4 180 180 180 180 1009 240 30 10 284
2002242N14257 2002 58 EP MM HERNAN 2002-09-02 09:00:00 TS 18.3075 -114.858 main 724 724 P_____________ EP102002 18.3075 -114.858 HU 112 950 3 180 180 180 180 1009 240 30 11 281
2002242N14257 2002 58 EP MM HERNAN 2002-09-02 12:00:00 TS 18.4000 -115.400 110 952 hurdat_epa main 754 754 O_____________ hurdat_epa EP102002 18.4000 -115.400 HU 110 952 3 180 180 180 180 1009 240 30 10 282
2002242N14257 2002 58 EP MM HERNAN 2002-09-02 15:00:00 TS 18.5072 -115.858 main 786 786 P_____________ EP102002 18.5072 -115.858 HU 107 954 3 180 180 180 180 1009 240 25 9 283
2002242N14257 2002 58 EP MM HERNAN 2002-09-02 18:00:00 TS 18.6000 -116.300 105 956 hurdat_epa main 807 807 O_____________ hurdat_epa EP102002 18.6000 -116.300 HU 105 956 3 180 180 180 180 1009 240 20 9 280
2002242N14257 2002 58 EP MM HERNAN 2002-09-02 21:00:00 TS 18.6574 -116.793 main 827 827 P_____________ EP102002 18.6574 -116.793 HU 100 960 3 180 180 180 180 1009 240 25 10 276
2002242N14257 2002 58 EP MM HERNAN 2002-09-03 00:00:00 TS 18.7000 -117.300 95 965 hurdat_epa main 859 859 O_____________ hurdat_epa EP102002 18.7000 -117.300 HU 95 965 2 180 180 180 180 1009 240 30 10 276
2002242N14257 2002 58 EP MM HERNAN 2002-09-03 03:00:00 TS 18.7499 -117.800 main 892 883 P_____________ EP102002 18.7499 -117.800 HU 92 967 2 180 180 180 180 1009 240 30 10 276
2002242N14257 2002 58 EP MM HERNAN 2002-09-03 06:00:00 TS 18.8000 -118.300 90 970 hurdat_epa main 918 918 O_____________ hurdat_epa EP102002 18.8000 -118.300 HU 90 970 2 180 180 180 180 1009 240 30 10 275
2002242N14257 2002 58 EP MM HERNAN 2002-09-03 09:00:00 TS 18.8350 -118.815 main 955 955 P_____________ EP102002 18.8350 -118.815 HU 87 972 2 180 180 180 180 1009 240 30 10 276
2002242N14257 2002 58 EP MM HERNAN 2002-09-03 12:00:00 TS 18.9000 -119.300 85 975 hurdat_epa main 985 985 O_____________ hurdat_epa EP102002 18.9000 -119.300 HU 85 975 2 180 180 180 180 1009 240 30 9 283
2002242N14257 2002 58 EP MM HERNAN 2002-09-03 15:00:00 TS 19.0349 -119.722 main 1008 1008 P_____________ EP102002 19.0349 -119.722 HU 82 975 1 180 180 180 180 1009 240 30 8 292
2002242N14257 2002 58 EP MM HERNAN 2002-09-03 18:00:00 TS 19.2000 -120.100 80 976 hurdat_epa main 1026 1026 O_____________ hurdat_epa EP102002 19.2000 -120.100 HU 80 976 1 180 180 180 180 1009 240 30 7 293
2002242N14257 2002 58 EP MM HERNAN 2002-09-03 21:00:00 TS 19.3198 -120.450 main 1052 1046 P_____________ EP102002 19.3198 -120.450 HU 75 979 1 165 165 140 165 1009 255 30 7 294
2002242N14257 2002 58 EP MM HERNAN 2002-09-04 00:00:00 TS 19.5000 -120.800 70 983 hurdat_epa main 1064 1064 O_____________ hurdat_epa EP102002 19.5000 -120.800 HU 70 983 1 150 150 100 150 1009 270 30 9 306
2002242N14257 2002 58 EP MM HERNAN 2002-09-04 03:00:00 TS 19.8351 -121.215 main 1078 1069 P_____________ EP102002 19.8351 -121.215 HU 67 985 1 150 150 100 150 1009 270 30 10 313
2002242N14257 2002 58 EP MM HERNAN 2002-09-04 06:00:00 TS 20.2000 -121.600 65 987 hurdat_epa main 1071 1059 O_____________ hurdat_epa EP102002 20.2000 -121.600 HU 65 987 1 150 150 100 150 1009 270 30 9 317
2002242N14257 2002 58 EP MM HERNAN 2002-09-04 09:00:00 TS 20.4723 -121.858 main 1065 1055 P_____________ EP102002 20.4723 -121.858 HU 60 990 0 150 150 100 150 1009 270 30 7 317
2002242N14257 2002 58 EP MM HERNAN 2002-09-04 12:00:00 TS 20.7000 -122.100 55 994 hurdat_epa main 1062 1059 O_____________ hurdat_epa EP102002 20.7000 -122.100 TS 55 994 0 150 150 100 150 1009 270 30 7 308
2002242N14257 2002 58 EP MM HERNAN 2002-09-04 15:00:00 TS 20.9076 -122.450 main 1073 1065 P_____________ EP102002 20.9076 -122.450 TS 52 995 0 125 125 100 125 1009 270 30 8 301
2002242N14257 2002 58 EP MM HERNAN 2002-09-04 18:00:00 TS 21.1000 -122.800 50 997 hurdat_epa main 1079 1079 O_____________ hurdat_epa EP102002 21.1000 -122.800 TS 50 997 0 100 100 100 100 1009 270 30 7 305
2002242N14257 2002 58 EP MM HERNAN 2002-09-04 21:00:00 TS 21.3074 -123.073 main 1086 1079 P_____________ EP102002 21.3074 -123.073 TS 45 999 0 100 87 87 100 1009 255 35 6 311
2002242N14257 2002 58 EP MM HERNAN 2002-09-05 00:00:00 TS 21.5000 -123.300 40 1002 hurdat_epa main 1087 1087 O_____________ hurdat_epa EP102002 21.5000 -123.300 TS 40 1002 0 100 75 75 100 1010 240 40 5 310
2002242N14257 2002 58 EP MM HERNAN 2002-09-05 03:00:00 TS 21.6424 -123.508 main 1095 1088 P_____________ EP102002 21.6424 -123.508 TS 37 1003 0 87 75 75 87 1010 240 40 5 309
2002242N14257 2002 58 EP MM HERNAN 2002-09-05 06:00:00 TS 21.8000 -123.700 35 1005 hurdat_epa main 1097 1091 O_____________ hurdat_epa EP102002 21.8000 -123.700 TS 35 1005 0 75 75 75 75 1010 240 40 5 317
2002242N14257 2002 58 EP MM HERNAN 2002-09-05 09:00:00 TS 22.0350 -123.907 main 1099 1093 P_____________ EP102002 22.0350 -123.907 TS 32 1004 -1 1010 240 40 6 323
2002242N14257 2002 58 EP MM HERNAN 2002-09-05 12:00:00 TS 22.3000 -124.100 30 1004 hurdat_epa main 1096 1090 O_____________ hurdat_epa EP102002 22.3000 -124.100 TD 30 1004 -1 1010 240 40 6 326
2002242N14257 2002 58 EP MM HERNAN 2002-09-05 15:00:00 TS 22.5500 -124.280 main 1094 1088 P_____________ EP102002 22.5500 -124.280 TD 30 1005 -1 1010 240 40 6 331
2002242N14257 2002 58 EP MM HERNAN 2002-09-05 18:00:00 TS 22.8000 -124.400 30 1006 hurdat_epa main 1091 1079 O_____________ hurdat_epa EP102002 22.8000 -124.400 TD 30 1006 -1 1010 240 40 5 346
2002242N14257 2002 58 EP MM HERNAN 2002-09-05 21:00:00 TS 23.0575 -124.415 main 1073 1062 P_____________ EP102002 23.0575 -124.415 TD 30 1006 -1 1010 240 40 5 2
2002242N14257 2002 58 EP MM HERNAN 2002-09-06 00:00:00 TS 23.3000 -124.400 30 1006 hurdat_epa main 1062 1051 O_____________ hurdat_epa EP102002 23.3000 -124.400 TD 30 1006 -1 1010 240 40 5 357
2002242N14257 2002 58 EP MM HERNAN 2002-09-06 03:00:00 TS 23.5150 -124.442 main 1051 1050 P_____________ EP102002 23.5150 -124.442 TD 27 1007 -1 1010 240 40 4 348
2002242N14257 2002 58 EP MM HERNAN 2002-09-06 06:00:00 TS 23.7000 -124.500 25 1009 hurdat_epa main 1050 1045 O_____________ hurdat_epa EP102002 23.7000 -124.500 TD 25 1009 -1 1010 240 40 3 343
2002242N14257 2002 58 EP MM HERNAN 2002-09-06 09:00:00 TS 23.8425 -124.550 main 1054 1044 P_____________ EP102002 23.8425 -124.550 TD 25 1009 -1 1010 240 50 3 344
2002242N14257 2002 58 EP MM HERNAN 2002-09-06 12:00:00 TS 24.0000 -124.600 25 1009 hurdat_epa main 1044 1035 O_____________ hurdat_epa EP102002 24.0000 -124.600 TD 25 1009 -1 1010 240 60 4 347
2002242N14257 2002 58 EP MM HERNAN 2002-09-06 15:00:00 TS 24.2275 -124.650 main 1035 1031 P_____________ EP102002 24.2275 -124.650 TD 22 1009 -1 5 350
2002242N14257 2002 58 EP MM HERNAN 2002-09-06 18:00:00 DS 24.5000 -124.700 20 1009 hurdat_epa main 1031 O_____________ hurdat_epa EP102002 24.5000 -124.700 LO 20 1009 -3 6 354

About IBTrACS Database

This database is a web-friendly format of International Best Track Archive for Climate Stewardship (IBTrACS), a global best track data archive curated by NOAA dating back to 1842.

Updated: 2021-12-03